createdAt,value
2023-01-01T00:01:55.246Z,106.22
2023-01-01T00:04:23.141Z,129.68
2023-01-01T00:06:51.033Z,130.50
2023-01-01T00:09:37.819Z,124.22
2023-01-01T00:12:06.495Z,129.88
2023-01-01T00:14:34.955Z,131.43
2023-01-01T00:17:02.904Z,130.63
2023-01-01T00:19:30.813Z,157.88
2023-01-01T00:22:02.078Z,156.55
2023-01-01T00:24:34.793Z,96.78
2023-01-01T00:27:02.654Z,58.15
2023-01-01T00:29:30.530Z,76.75
2023-01-01T00:31:58.460Z,113.82
2023-01-01T00:34:26.374Z,96.82
2023-01-01T00:36:54.267Z,64.47
2023-01-01T00:39:22.198Z,67.43
2023-01-01T00:41:51.393Z,48.03
2023-01-01T00:44:19.259Z,54.55
2023-01-01T00:46:54.215Z,57.92
2023-01-01T00:49:22.574Z,85.07
2023-01-01T00:51:50.434Z,75.30
2023-01-01T00:54:18.324Z,71.03
2023-01-01T00:56:46.265Z,75.20
2023-01-01T00:59:15.477Z,97.15
2023-01-01T01:01:43.452Z,105.22
2023-01-01T01:04:11.382Z,105.45
2023-01-01T01:06:39.279Z,96.47
2023-01-01T01:09:07.723Z,93.43
2023-01-01T01:11:35.591Z,77.95
2023-01-01T01:14:03.457Z,66.40
2023-01-01T01:16:34.645Z,61.03
2023-01-01T01:19:04.618Z,66.90
2023-01-01T01:21:35.076Z,72.57
2023-01-01T01:24:04.328Z,71.40
2023-01-01T01:26:33.595Z,79.43
2023-01-01T01:29:01.579Z,61.25
2023-01-01T01:31:32.390Z,53.20
2023-01-01T01:34:00.633Z,46.97
2023-01-01T01:36:29.685Z,35.90
2023-01-01T01:38:57.704Z,52.20
2023-01-01T01:41:28.648Z,50.15
2023-01-01T01:43:59.444Z,30.45
2023-01-01T01:46:33.317Z,28.10
2023-01-01T01:49:05.374Z,22.77
2023-01-01T01:51:37.816Z,18.67
2023-01-01T01:54:11.516Z,13.63
2023-01-01T01:56:44.713Z,12.07
2023-01-01T01:59:12.726Z,11.98
2023-01-01T02:01:42.433Z,12.82
2023-01-01T02:04:10.626Z,13.55
2023-01-01T02:06:40.543Z,12.18
2023-01-01T02:09:09.995Z,12.43
2023-01-01T02:11:38.276Z,12.65
2023-01-01T02:14:06.865Z,10.65
2023-01-01T02:16:38.841Z,11.20
2023-01-01T02:19:16.329Z,11.15
2023-01-01T02:22:00.659Z,9.02
2023-01-01T02:24:44.597Z,8.32
2023-01-01T02:27:19.566Z,7.78
2023-01-01T02:29:51.985Z,6.18
2023-01-01T02:32:23.521Z,6.65
2023-01-01T02:34:55.916Z,6.95
2023-01-01T02:37:26.468Z,6.93
2023-01-01T02:39:57.496Z,5.60
2023-01-01T02:42:29.854Z,6.47
2023-01-01T02:45:01.165Z,6.93
2023-01-01T02:47:29.054Z,6.45
2023-01-01T02:50:03.171Z,7.85
2023-01-01T02:52:51.353Z,8.38
2023-01-01T02:55:30.048Z,8.75
2023-01-01T02:58:24.968Z,7.75
2023-01-01T03:00:58.671Z,7.88
2023-01-01T03:03:31.966Z,7.80
2023-01-01T03:06:23.591Z,8.60
2023-01-01T03:09:09.535Z,8.70
2023-01-01T03:11:46.467Z,7.13
2023-01-01T03:14:21.303Z,8.35
2023-01-01T03:16:54.037Z,12.77
2023-01-01T03:19:24.101Z,13.40
2023-01-01T03:21:55.946Z,11.80
2023-01-01T03:24:27.337Z,12.02
2023-01-01T03:26:58.699Z,14.15
2023-01-01T03:29:29.698Z,9.38
2023-01-01T03:32:01.206Z,8.10
2023-01-01T03:34:33.540Z,9.65
2023-01-01T03:37:06.451Z,8.68
2023-01-01T03:39:37.634Z,8.05
2023-01-01T03:42:12.779Z,10.80
2023-01-01T03:44:46.678Z,10.07
2023-01-01T03:47:16.684Z,10.45
2023-01-01T03:49:45.172Z,9.88
2023-01-01T03:52:31.776Z,9.18
2023-01-01T03:55:06.694Z,8.60
2023-01-01T03:57:42.693Z,12.75
2023-01-01T04:00:16.305Z,10.90
2023-01-01T04:02:50.264Z,12.32
2023-01-01T04:05:20.208Z,12.65
2023-01-01T04:10:20.592Z,11.10
2023-01-01T04:12:50.786Z,13.27
2023-01-01T04:15:20.519Z,12.43
2023-01-01T04:17:51.381Z,14.18
2023-01-01T04:20:20.207Z,9.65
2023-01-01T04:22:48.628Z,9.35
2023-01-01T04:25:17.931Z,12.15
2023-01-01T04:27:45.862Z,12.52
2023-01-01T04:30:15.599Z,10.20
2023-01-01T04:32:45.469Z,11.98
2023-01-01T04:35:15.936Z,10.88
2023-01-01T04:37:45.667Z,9.82
2023-01-01T04:40:14.893Z,9.73
2023-01-01T04:42:43.310Z,9.45
2023-01-01T04:45:12.359Z,9.60
2023-01-01T04:47:41.343Z,7.38
2023-01-01T04:50:09.880Z,7.97
2023-01-01T04:52:39.298Z,10.95
2023-01-01T04:55:08.006Z,9.15
2023-01-01T04:57:36.686Z,7.65
2023-01-01T05:00:05.800Z,7.10
2023-01-01T05:02:33.819Z,6.82
2023-01-01T05:05:01.737Z,6.28
2023-01-01T05:07:29.622Z,5.88
2023-01-01T05:09:58.824Z,6.65
2023-01-01T05:12:26.682Z,6.07
2023-01-01T05:14:54.584Z,5.97
2023-01-01T05:17:22.442Z,4.65
2023-01-01T05:19:50.270Z,4.78
2023-01-01T05:22:18.136Z,5.95
2023-01-01T05:24:46.014Z,5.10
2023-01-01T05:27:15.204Z,4.68
2023-01-01T05:29:43.062Z,4.55
2023-01-01T05:37:04.480Z,4.18
2023-01-01T05:39:32.337Z,5.20
2023-01-01T05:42:00.215Z,5.40
2023-01-01T05:44:29.443Z,5.72
2023-01-01T05:46:57.983Z,5.22
2023-01-01T05:49:25.853Z,5.13
2023-01-01T05:51:53.738Z,4.32
2023-01-01T05:54:21.569Z,6.45
2023-01-01T05:56:49.409Z,4.50
2023-01-01T05:59:17.275Z,3.83
2023-01-01T06:01:46.566Z,4.65
2023-01-01T06:04:15.020Z,4.75
2023-01-01T06:06:43.165Z,4.45
2023-01-01T06:09:12.350Z,6.47
2023-01-01T06:11:40.194Z,5.75
2023-01-01T06:14:08.123Z,4.85
2023-01-01T06:16:36.066Z,3.67
2023-01-01T06:19:05.361Z,4.65
2023-01-01T06:21:33.281Z,3.80
2023-01-01T06:24:01.666Z,6.10
2023-01-01T06:26:32.315Z,3.90
2023-01-01T06:29:03.018Z,5.30
2023-01-01T06:31:35.578Z,3.13
2023-01-01T06:34:07.715Z,2.50
2023-01-01T06:36:35.566Z,2.42
2023-01-01T06:39:04.407Z,4.10
2023-01-01T06:41:32.838Z,3.90
2023-01-01T06:44:02.045Z,3.08
2023-01-01T06:46:32.408Z,3.38
2023-01-01T06:49:02.768Z,3.50
2023-01-01T06:51:33.646Z,3.10
2023-01-01T06:54:02.591Z,3.35
2023-01-01T06:56:31.005Z,4.13
2023-01-01T06:58:59.169Z,3.90
2023-01-01T07:01:28.825Z,3.47
2023-01-01T07:03:58.024Z,2.90
2023-01-01T07:06:26.924Z,3.22
2023-01-01T07:08:56.762Z,3.85
2023-01-01T07:11:25.456Z,4.35
2023-01-01T07:13:53.357Z,3.20
2023-01-01T07:16:21.605Z,3.22
2023-01-01T07:18:50.578Z,2.45
2023-01-01T07:21:30.323Z,2.75
2023-01-01T07:24:00.744Z,2.90
2023-01-01T07:26:29.972Z,3.58
2023-01-01T07:29:04.660Z,4.97
2023-01-01T07:31:35.681Z,2.20
2023-01-01T07:34:03.670Z,2.47
2023-01-01T07:36:31.587Z,2.70
2023-01-01T07:39:00.816Z,2.17
2023-01-01T07:41:28.864Z,2.67
2023-01-01T07:43:56.846Z,1.88
2023-01-01T07:46:24.827Z,1.98
2023-01-01T07:48:52.798Z,4.00
2023-01-01T07:51:20.874Z,1.63
2023-01-01T07:53:48.708Z,1.75
2023-01-01T07:56:18.017Z,2.00
2023-01-01T07:58:45.908Z,1.83
2023-01-01T08:01:15.531Z,2.53
2023-01-01T08:03:43.662Z,2.10
2023-01-01T08:06:13.167Z,2.15
2023-01-01T08:08:41.399Z,2.42
2023-01-01T08:11:09.532Z,1.65
2023-01-01T08:13:38.735Z,2.15
2023-01-01T08:16:07.267Z,2.20
2023-01-01T08:18:35.284Z,2.28
2023-01-01T08:21:03.296Z,2.00
2023-01-01T08:23:31.575Z,3.75
2023-01-01T08:26:01.176Z,4.18
2023-01-01T08:28:29.353Z,1.25
2023-01-01T08:30:59.379Z,1.38
2023-01-01T08:33:27.366Z,1.65
2023-01-01T08:35:55.314Z,2.42
2023-01-01T08:38:23.342Z,1.95
2023-01-01T08:40:51.225Z,2.55
2023-01-01T08:43:19.364Z,2.92
2023-01-01T08:45:47.315Z,1.58
2023-01-01T08:48:16.523Z,1.60
2023-01-01T08:50:44.398Z,1.80
2023-01-01T08:53:12.236Z,1.73
2023-01-01T08:55:40.102Z,2.50
2023-01-01T08:58:08.405Z,4.20
2023-01-01T09:00:36.562Z,1.45
2023-01-01T09:03:04.678Z,2.97
2023-01-01T09:05:33.976Z,0.95
2023-01-01T09:08:01.883Z,1.58
2023-01-01T09:10:29.762Z,1.90
2023-01-01T09:12:57.641Z,2.83
2023-01-01T09:15:25.543Z,1.58
2023-01-01T09:17:53.418Z,2.75
2023-01-01T09:20:21.360Z,2.03
2023-01-01T09:22:50.756Z,1.30
2023-01-01T09:25:18.769Z,3.33
2023-01-01T09:27:46.726Z,2.63
2023-01-01T09:30:15.613Z,2.90
2023-01-01T09:32:43.507Z,3.45
2023-01-01T09:35:11.392Z,2.05
2023-01-01T09:37:39.248Z,2.22
2023-01-01T09:40:14.465Z,1.50
2023-01-01T09:42:47.898Z,1.42
2023-01-01T09:47:53.365Z,2.88
2023-01-01T09:50:24.698Z,1.85
2023-01-01T09:52:57.177Z,1.80
2023-01-01T09:55:29.764Z,1.70
2023-01-01T09:57:58.531Z,2.47
2023-01-01T10:00:27.516Z,1.58
2023-01-01T10:03:14.415Z,2.05
2023-01-01T10:05:50.941Z,1.42
2023-01-01T10:08:28.551Z,1.52
2023-01-01T10:11:09.657Z,1.55
2023-01-01T10:13:41.920Z,1.38
2023-01-01T10:16:17.993Z,1.63
2023-01-01T10:18:53.037Z,3.28
2023-01-01T10:21:25.348Z,2.15
2023-01-01T10:23:55.780Z,2.20
2023-01-01T10:26:29.530Z,1.75
2023-01-01T10:29:02.572Z,1.88
2023-01-01T10:31:34.212Z,1.13
2023-01-01T10:34:13.277Z,2.17
2023-01-01T10:36:41.201Z,1.42
2023-01-01T10:39:13.878Z,1.80
2023-01-01T10:41:43.275Z,2.17
2023-01-01T10:44:11.716Z,2.13
2023-01-01T10:46:44.131Z,1.38
2023-01-01T10:49:13.390Z,1.55
2023-01-01T10:51:45.687Z,1.20
2023-01-01T10:54:32.031Z,1.23
2023-01-01T10:57:01.889Z,2.13
2023-01-01T10:59:36.196Z,1.45
2023-01-01T11:02:26.492Z,1.58
2023-01-01T11:05:20.717Z,1.70
2023-01-01T11:07:50.034Z,2.90
2023-01-01T11:10:20.088Z,1.83
2023-01-01T11:13:06.549Z,2.20
2023-01-01T11:15:38.645Z,1.73
2023-01-01T11:20:59.613Z,1.88
2023-01-01T11:23:31.737Z,1.65
2023-01-01T11:26:03.366Z,1.00
2023-01-01T11:28:34.891Z,1.60
2023-01-01T11:31:15.573Z,1.65
2023-01-01T11:33:49.494Z,2.13
2023-01-01T11:36:25.263Z,1.88
2023-01-01T11:39:07.646Z,1.35
2023-01-01T11:41:44.156Z,2.08
2023-01-01T11:44:23.196Z,2.25
2023-01-01T11:46:51.138Z,3.92
2023-01-01T11:49:24.547Z,3.03
2023-01-01T11:51:52.635Z,1.90
2023-01-01T11:54:32.798Z,2.33
2023-01-01T11:57:08.303Z,2.67
2023-01-01T11:59:46.717Z,2.53
2023-01-01T12:02:19.393Z,1.27
2023-01-01T12:04:53.955Z,1.50
2023-01-01T12:07:26.657Z,1.83
2023-01-01T12:10:01.454Z,1.17
2023-01-01T12:12:35.359Z,1.60
2023-01-01T12:15:15.098Z,1.35
2023-01-01T12:17:46.663Z,1.65
2023-01-01T12:20:21.353Z,1.13
2023-01-01T12:22:49.914Z,1.60
2023-01-01T12:25:20.864Z,1.38
2023-01-01T12:28:03.924Z,2.03
2023-01-01T12:30:40.900Z,1.70
2023-01-01T12:33:27.419Z,2.78
2023-01-01T12:36:11.284Z,2.65
2023-01-01T12:38:59.852Z,1.77
2023-01-01T12:41:33.667Z,2.00
2023-01-01T12:44:09.348Z,1.67
2023-01-01T12:46:49.892Z,1.10
2023-01-01T12:49:48.455Z,2.20
2023-01-01T12:52:30.069Z,2.05
2023-01-01T12:55:38.179Z,1.08
2023-01-01T12:58:13.093Z,1.88
2023-01-01T13:00:45.060Z,1.17
2023-01-01T13:03:20.385Z,1.75
2023-01-01T13:05:52.552Z,1.73
2023-01-01T13:08:20.428Z,1.70
2023-01-01T13:10:51.407Z,1.02
2023-01-01T13:13:19.438Z,1.58
2023-01-01T13:15:55.573Z,1.38
2023-01-01T13:18:28.152Z,1.02
2023-01-01T13:21:05.725Z,2.47
2023-01-01T13:23:47.941Z,1.52
2023-01-01T13:26:35.799Z,1.30
2023-01-01T13:29:33.341Z,1.58
2023-01-01T13:32:05.154Z,4.90
2023-01-01T13:34:41.791Z,1.00
2023-01-01T13:37:44.705Z,1.55
2023-01-01T13:40:50.967Z,1.75
2023-01-01T13:43:29.415Z,1.95
2023-01-01T13:46:11.474Z,1.67
2023-01-01T13:49:16.173Z,1.42
2023-01-01T13:52:05.876Z,1.13
2023-01-01T13:55:29.464Z,2.42
2023-01-01T13:58:25.250Z,1.10
2023-01-01T14:01:23.019Z,1.30
2023-01-01T14:03:54.604Z,1.20
2023-01-01T14:06:29.925Z,1.80
2023-01-01T14:09:08.527Z,1.70
2023-01-01T14:11:36.458Z,0.93
2023-01-01T14:14:04.483Z,1.13
2023-01-01T14:16:32.410Z,1.10
2023-01-01T14:19:03.303Z,1.17
2023-01-01T14:21:34.428Z,1.15
2023-01-01T14:24:05.672Z,2.88
2023-01-01T14:26:35.155Z,3.33
2023-01-01T14:29:07.345Z,3.17
2023-01-01T14:31:37.574Z,2.95
2023-01-01T14:34:15.319Z,3.20
2023-01-01T14:36:51.873Z,2.30
2023-01-01T14:39:28.794Z,2.85
2023-01-01T14:42:01.224Z,2.40
2023-01-01T14:44:35.119Z,4.38
2023-01-01T14:47:04.457Z,2.42
2023-01-01T14:49:34.616Z,1.80
2023-01-01T14:52:04.752Z,2.17
2023-01-01T14:54:37.534Z,2.03
2023-01-01T14:57:11.656Z,5.70
2023-01-01T14:59:47.996Z,2.45
2023-01-01T15:02:18.604Z,2.67
2023-01-01T15:04:46.637Z,2.72
2023-01-01T15:07:22.508Z,2.38
2023-01-01T15:09:52.229Z,3.47
2023-01-01T15:12:21.104Z,2.78
2023-01-01T15:14:50.563Z,3.20
2023-01-01T15:17:19.908Z,2.33
2023-01-01T15:20:01.113Z,4.30
2023-01-01T15:22:31.855Z,3.42
2023-01-01T15:25:01.892Z,4.60
2023-01-01T15:27:31.982Z,3.10
2023-01-01T15:30:00.415Z,2.50
2023-01-01T15:32:31.989Z,2.80
2023-01-01T15:35:02.977Z,2.90
2023-01-01T15:37:34.937Z,3.15
2023-01-01T15:40:25.759Z,2.92
2023-01-01T15:43:12.711Z,5.10
2023-01-01T15:45:42.454Z,5.40
2023-01-01T15:48:22.223Z,2.70
2023-01-01T15:51:07.355Z,4.78
2023-01-01T15:53:47.822Z,3.20
2023-01-01T15:56:17.890Z,5.07
2023-01-01T15:58:54.063Z,25.42
2023-01-01T16:01:24.984Z,5.43
2023-01-01T16:04:01.140Z,9.57
2023-01-01T16:06:29.767Z,6.93
2023-01-01T16:08:57.616Z,8.15
2023-01-01T16:11:26.912Z,9.55
2023-01-01T16:13:54.874Z,10.18
2023-01-01T16:16:28.725Z,9.10
2023-01-01T16:18:57.343Z,7.55
2023-01-01T16:21:27.605Z,4.88
2023-01-01T16:23:56.310Z,4.35
2023-01-01T16:26:24.207Z,3.90
2023-01-01T16:28:53.524Z,5.03
2023-01-01T16:31:25.388Z,4.25
2023-01-01T16:33:55.666Z,4.10
2023-01-01T16:36:23.916Z,5.53
2023-01-01T16:38:51.803Z,4.05
2023-01-01T16:41:20.009Z,5.72
2023-01-01T16:43:48.761Z,4.72
2023-01-01T16:46:18.139Z,6.25
2023-01-01T16:48:46.066Z,5.07
2023-01-01T16:51:20.259Z,6.68
2023-01-01T16:53:48.586Z,4.53
2023-01-01T16:56:17.447Z,4.07
2023-01-01T16:58:51.247Z,4.18
2023-01-01T17:01:21.704Z,6.13
2023-01-01T17:03:51.443Z,5.40
2023-01-01T17:06:19.799Z,4.03
2023-01-01T17:08:47.681Z,3.17
2023-01-01T17:11:17.331Z,4.25
2023-01-01T17:13:47.005Z,4.30
2023-01-01T17:16:23.270Z,5.95
2023-01-01T17:21:45.285Z,4.32
2023-01-01T17:24:13.224Z,5.43
2023-01-01T17:26:41.177Z,4.45
2023-01-01T17:29:09.332Z,4.90
2023-01-01T17:31:55.395Z,4.75
2023-01-01T17:34:26.501Z,4.88
2023-01-01T17:36:54.362Z,3.53
2023-01-01T17:39:22.197Z,4.22
2023-01-01T17:41:50.335Z,4.28
2023-01-01T17:44:18.338Z,3.55
2023-01-01T17:46:46.389Z,5.18
2023-01-01T17:49:14.343Z,4.22
2023-01-01T17:51:43.731Z,4.05
2023-01-01T17:54:13.656Z,4.60
2023-01-01T17:56:42.029Z,5.88
2023-01-01T17:59:10.373Z,5.82
2023-01-01T18:01:38.432Z,5.97
2023-01-01T18:04:07.975Z,4.85
2023-01-01T18:06:42.128Z,5.30
2023-01-01T18:09:14.359Z,4.03
2023-01-01T18:11:43.086Z,4.97
2023-01-01T18:14:11.694Z,5.53
2023-01-01T18:16:41.020Z,4.40
2023-01-01T18:19:09.182Z,4.93
2023-01-01T18:21:37.178Z,4.00
2023-01-01T18:24:12.829Z,4.75
2023-01-01T18:26:44.658Z,3.90
2023-01-01T18:29:12.769Z,4.75
2023-01-01T18:31:40.788Z,5.70
2023-01-01T18:34:08.785Z,5.32
2023-01-01T18:36:40.410Z,5.38
2023-01-01T18:39:15.683Z,5.13
2023-01-01T18:42:13.919Z,4.75
2023-01-01T18:44:43.394Z,3.97
2023-01-01T18:47:15.362Z,4.57
2023-01-01T18:49:48.468Z,4.53
2023-01-01T18:52:23.705Z,4.38
2023-01-01T18:55:12.046Z,4.30
2023-01-01T18:57:42.023Z,4.85
2023-01-01T19:00:18.991Z,5.63
2023-01-01T19:02:53.934Z,3.92
2023-01-01T19:05:26.891Z,3.53
2023-01-01T19:08:11.846Z,6.93
2023-01-01T19:10:41.903Z,5.57
2023-01-01T19:13:16.989Z,5.75
2023-01-01T19:15:47.321Z,6.25
2023-01-01T19:18:18.469Z,5.78
2023-01-01T19:20:46.867Z,4.43
2023-01-01T19:23:19.848Z,5.60
2023-01-01T19:25:48.716Z,5.10
2023-01-01T19:28:32.468Z,5.78
2023-01-01T19:31:01.075Z,4.60
2023-01-01T19:33:29.983Z,3.95
2023-01-01T19:35:58.326Z,6.03
2023-01-01T19:38:26.212Z,6.25
2023-01-01T19:40:54.182Z,5.40
2023-01-01T19:43:22.114Z,6.63
2023-01-01T19:45:51.344Z,4.68
2023-01-01T19:48:19.208Z,7.40
2023-01-01T19:50:47.660Z,5.07
2023-01-01T19:53:15.613Z,5.35
2023-01-01T19:55:43.587Z,6.05
2023-01-01T19:58:12.474Z,5.45
2023-01-01T20:00:40.404Z,7.53
2023-01-01T20:03:43.293Z,4.85
2023-01-01T20:05:57.613Z,3.90
2023-01-01T20:08:26.891Z,5.28
2023-01-01T20:10:54.884Z,4.47
2023-01-01T20:13:45.648Z,4.88
2023-01-01T20:16:17.433Z,4.60
2023-01-01T20:18:48.072Z,4.75
2023-01-01T20:21:33.944Z,8.10
2023-01-01T20:24:01.853Z,4.40
2023-01-01T20:26:30.218Z,5.53
2023-01-01T20:29:15.473Z,4.13
2023-01-01T20:31:43.841Z,3.63
2023-01-01T20:34:13.438Z,3.40
2023-01-01T20:36:58.854Z,3.95
2023-01-01T20:39:27.352Z,3.90
2023-01-01T20:42:00.046Z,4.70
2023-01-01T20:44:28.505Z,7.00
2023-01-01T20:46:56.811Z,7.07
2023-01-01T20:49:26.026Z,3.97
2023-01-01T20:51:54.679Z,3.22
2023-01-01T20:54:23.488Z,3.60
2023-01-01T20:56:51.470Z,3.47
2023-01-01T20:59:36.916Z,3.22
2023-01-01T21:02:06.454Z,3.53
2023-01-01T21:04:38.522Z,2.63
2023-01-01T21:07:07.890Z,2.63
2023-01-01T21:09:35.765Z,3.53
2023-01-01T21:12:03.796Z,2.65
2023-01-01T21:14:32.440Z,2.75
2023-01-01T21:17:01.089Z,3.75
2023-01-01T21:19:29.383Z,3.35
2023-01-01T21:21:59.473Z,3.83
2023-01-01T21:24:29.329Z,3.30
2023-01-01T21:27:02.712Z,3.28
2023-01-01T21:32:19.740Z,2.65
2023-01-01T21:34:48.966Z,2.58
2023-01-01T21:37:37.982Z,3.10
2023-01-01T21:40:35.607Z,1.80
2023-01-01T21:43:39.222Z,4.22
2023-01-01T21:46:34.824Z,2.55
2023-01-01T21:49:07.370Z,3.45
2023-01-01T21:51:40.982Z,3.40
2023-01-01T21:54:34.026Z,2.55
2023-01-01T21:57:03.674Z,3.97
2023-01-01T21:59:37.172Z,3.75
2023-01-01T22:02:31.735Z,3.63
2023-01-01T22:05:03.089Z,3.20
2023-01-01T22:10:26.898Z,3.78
2023-01-01T22:12:58.660Z,2.83
2023-01-01T22:15:38.956Z,3.78
2023-01-01T22:18:20.447Z,6.07
2023-01-01T22:20:48.689Z,4.03
2023-01-01T22:23:34.578Z,4.78
2023-01-01T22:26:12.816Z,2.90
2023-01-01T22:28:43.963Z,4.40
2023-01-01T22:31:17.727Z,3.30
2023-01-01T22:33:47.979Z,2.90
2023-01-01T22:36:18.825Z,2.80
2023-01-01T22:38:46.933Z,3.33
2023-01-01T22:41:16.559Z,2.58
2023-01-01T22:43:47.276Z,3.20
2023-01-01T22:46:27.165Z,3.15
2023-01-01T22:48:58.854Z,3.03
2023-01-01T22:51:29.613Z,2.78
2023-01-01T22:53:57.512Z,1.98
2023-01-01T22:56:26.676Z,3.20
2023-01-01T22:58:57.241Z,3.30
2023-01-01T23:01:25.762Z,4.80
2023-01-01T23:03:53.989Z,3.22
2023-01-01T23:06:22.681Z,2.72
2023-01-01T23:08:51.144Z,3.85
2023-01-01T23:11:19.361Z,2.55
2023-01-01T23:14:07.973Z,3.10
2023-01-01T23:16:36.094Z,3.58
2023-01-01T23:19:05.043Z,2.20
2023-01-01T23:21:34.555Z,3.35
2023-01-01T23:24:06.944Z,3.95
2023-01-01T23:26:35.166Z,3.20
2023-01-01T23:29:04.800Z,3.33
2023-01-01T23:31:33.790Z,3.55
2023-01-01T23:34:02.187Z,3.15
2023-01-01T23:36:30.673Z,2.30
2023-01-01T23:38:58.628Z,2.63
2023-01-01T23:41:26.556Z,4.80
2023-01-01T23:43:54.395Z,2.83
2023-01-01T23:46:23.837Z,3.92
2023-01-01T23:48:53.384Z,6.72
2023-01-01T23:51:21.829Z,2.60
2023-01-01T23:53:49.667Z,2.05
2023-01-01T23:56:17.660Z,2.95
2023-01-01T23:58:45.599Z,2.60
